sensor_id;sensor_type;location;lat;lon;timestamp;temperature;humidity
9762;DHT22;4920;49.594;11.022;2023-04-03T00:01:35;4.20;99.90
9762;DHT22;4920;49.594;11.022;2023-04-03T00:04:05;4.10;99.90
9762;DHT22;4920;49.594;11.022;2023-04-03T00:06:34;4.10;99.90
9762;DHT22;4920;49.594;11.022;2023-04-03T00:09:03;4.00;99.90
9762;DHT22;4920;49.594;11.022;2023-04-03T00:11:33;3.90;99.90
9762;DHT22;4920;49.594;11.022;2023-04-03T00:14:03;3.90;99.90
9762;DHT22;4920;49.594;11.022;2023-04-03T00:16:32;3.80;99.90
9762;DHT22;4920;49.594;11.022;2023-04-03T00:19:01;3.60;99.90
9762;DHT22;4920;49.594;11.022;2023-04-03T00:21:30;3.50;99.90
9762;DHT22;4920;49.594;11.022;2023-04-03T00:23:58;3.40;99.90
9762;DHT22;4920;49.594;11.022;2023-04-03T00:26:27;3.40;99.90
9762;DHT22;4920;49.594;11.022;2023-04-03T00:28:56;3.30;99.90
9762;DHT22;4920;49.594;11.022;2023-04-03T00:31:26;3.30;99.90
9762;DHT22;4920;49.594;11.022;2023-04-03T00:33:55;3.30;99.90
9762;DHT22;4920;49.594;11.022;2023-04-03T00:36:23;3.30;99.90
9762;DHT22;4920;49.594;11.022;2023-04-03T00:38:52;3.30;99.90
9762;DHT22;4920;49.594;11.022;2023-04-03T00:41:21;3.30;99.90
9762;DHT22;4920;49.594;11.022;2023-04-03T00:43:50;3.30;99.90
9762;DHT22;4920;49.594;11.022;2023-04-03T00:46:19;3.20;99.90
9762;DHT22;4920;49.594;11.022;2023-04-03T00:48:50;3.20;99.90
9762;DHT22;4920;49.594;11.022;2023-04-03T00:51:22;3.20;99.90
9762;DHT22;4920;49.594;11.022;2023-04-03T00:53:56;3.20;99.90
9762;DHT22;4920;49.594;11.022;2023-04-03T00:56:28;3.30;99.90
9762;DHT22;4920;49.594;11.022;2023-04-03T00:58:59;3.40;99.90
9762;DHT22;4920;49.594;11.022;2023-04-03T01:01:30;3.40;99.90
9762;DHT22;4920;49.594;11.022;2023-04-03T01:04:01;3.40;99.90
9762;DHT22;4920;49.594;11.022;2023-04-03T01:06:34;3.50;99.90
9762;DHT22;4920;49.594;11.022;2023-04-03T01:09:06;3.40;99.90
9762;DHT22;4920;49.594;11.022;2023-04-03T01:11:35;3.50;99.90
9762;DHT22;4920;49.594;11.022;2023-04-03T01:14:04;3.40;99.90
9762;DHT22;4920;49.594;11.022;2023-04-03T01:16:33;3.40;99.90
9762;DHT22;4920;49.594;11.022;2023-04-03T01:19:07;3.40;99.90
9762;DHT22;4920;49.594;11.022;2023-04-03T01:22:06;3.40;99.90
9762;DHT22;4920;49.594;11.022;2023-04-03T01:24:36;3.30;99.90
9762;DHT22;4920;49.594;11.022;2023-04-03T01:27:10;3.30;99.90
9762;DHT22;4920;49.594;11.022;2023-04-03T01:29:40;3.30;99.90
9762;DHT22;4920;49.594;11.022;2023-04-03T01:32:12;3.30;99.90
9762;DHT22;4920;49.594;11.022;2023-04-03T01:34:42;3.20;99.90
9762;DHT22;4920;49.594;11.022;2023-04-03T01:37:11;3.20;99.90
9762;DHT22;4920;49.594;11.022;2023-04-03T01:39:39;3.20;99.90
9762;DHT22;4920;49.594;11.022;2023-04-03T01:42:08;3.10;99.90
9762;DHT22;4920;49.594;11.022;2023-04-03T01:44:40;3.10;99.90
9762;DHT22;4920;49.594;11.022;2023-04-03T01:47:09;3.10;99.90
9762;DHT22;4920;49.594;11.022;2023-04-03T01:49:41;3.10;99.90
9762;DHT22;4920;49.594;11.022;2023-04-03T01:52:12;3.00;99.90
9762;DHT22;4920;49.594;11.022;2023-04-03T01:54:41;3.00;99.90
9762;DHT22;4920;49.594;11.022;2023-04-03T01:57:10;3.00;99.90
9762;DHT22;4920;49.594;11.022;2023-04-03T01:59:41;2.90;99.90
9762;DHT22;4920;49.594;11.022;2023-04-03T02:02:09;2.90;99.90
9762;DHT22;4920;49.594;11.022;2023-04-03T02:04:41;2.90;99.90
9762;DHT22;4920;49.594;11.022;2023-04-03T02:07:10;2.90;99.90
9762;DHT22;4920;49.594;11.022;2023-04-03T02:09:38;3.00;99.90
9762;DHT22;4920;49.594;11.022;2023-04-03T02:12:08;3.00;99.90
9762;DHT22;4920;49.594;11.022;2023-04-03T02:14:37;3.00;99.90
9762;DHT22;4920;49.594;11.022;2023-04-03T02:17:06;3.10;99.90
9762;DHT22;4920;49.594;11.022;2023-04-03T02:19:35;3.00;99.90
9762;DHT22;4920;49.594;11.022;2023-04-03T02:22:06;3.00;99.90
9762;DHT22;4920;49.594;11.022;2023-04-03T02:24:35;3.00;99.90
9762;DHT22;4920;49.594;11.022;2023-04-03T02:27:06;3.10;99.90
9762;DHT22;4920;49.594;11.022;2023-04-03T02:29:35;3.10;99.90
9762;DHT22;4920;49.594;11.022;2023-04-03T02:32:04;3.10;99.90
9762;DHT22;4920;49.594;11.022;2023-04-03T02:34:35;3.20;99.90
9762;DHT22;4920;49.594;11.022;2023-04-03T02:37:06;3.30;99.90
9762;DHT22;4920;49.594;11.022;2023-04-03T02:39:35;3.30;99.90
9762;DHT22;4920;49.594;11.022;2023-04-03T02:42:04;3.40;99.90
9762;DHT22;4920;49.594;11.022;2023-04-03T02:44:33;3.40;99.90
9762;DHT22;4920;49.594;11.022;2023-04-03T02:47:02;3.40;99.90
9762;DHT22;4920;49.594;11.022;2023-04-03T02:49:32;3.40;99.90
9762;DHT22;4920;49.594;11.022;2023-04-03T02:52:01;3.50;99.90
9762;DHT22;4920;49.594;11.022;2023-04-03T02:54:31;3.50;99.90
9762;DHT22;4920;49.594;11.022;2023-04-03T02:57:03;3.60;99.90
9762;DHT22;4920;49.594;11.022;2023-04-03T02:59:32;3.60;99.90
9762;DHT22;4920;49.594;11.022;2023-04-03T03:02:01;3.60;99.90
9762;DHT22;4920;49.594;11.022;2023-04-03T03:04:30;3.60;99.90
9762;DHT22;4920;49.594;11.022;2023-04-03T03:06:59;3.60;99.90
9762;DHT22;4920;49.594;11.022;2023-04-03T03:09:28;3.60;99.90
9762;DHT22;4920;49.594;11.022;2023-04-03T03:11:59;3.60;99.90
9762;DHT22;4920;49.594;11.022;2023-04-03T03:14:29;3.60;99.90
9762;DHT22;4920;49.594;11.022;2023-04-03T03:16:58;3.60;99.90
9762;DHT22;4920;49.594;11.022;2023-04-03T03:19:27;3.60;99.90
9762;DHT22;4920;49.594;11.022;2023-04-03T03:21:56;3.60;99.90
9762;DHT22;4920;49.594;11.022;2023-04-03T03:24:25;3.50;99.90
9762;DHT22;4920;49.594;11.022;2023-04-03T03:26:54;3.50;99.90
9762;DHT22;4920;49.594;11.022;2023-04-03T03:29:24;3.50;99.90
9762;DHT22;4920;49.594;11.022;2023-04-03T03:31:53;3.40;99.90
9762;DHT22;4920;49.594;11.022;2023-04-03T03:34:22;3.30;99.90
9762;DHT22;4920;49.594;11.022;2023-04-03T03:36:50;3.30;99.90
9762;DHT22;4920;49.594;11.022;2023-04-03T03:39:19;3.30;99.90
9762;DHT22;4920;49.594;11.022;2023-04-03T03:41:48;3.30;99.90
9762;DHT22;4920;49.594;11.022;2023-04-03T03:44:18;3.20;99.90
9762;DHT22;4920;49.594;11.022;2023-04-03T03:46:48;3.20;99.90
9762;DHT22;4920;49.594;11.022;2023-04-03T03:49:17;3.10;99.90
9762;DHT22;4920;49.594;11.022;2023-04-03T03:51:46;3.20;99.90
9762;DHT22;4920;49.594;11.022;2023-04-03T03:54:15;3.20;99.90
9762;DHT22;4920;49.594;11.022;2023-04-03T03:56:44;3.30;99.90
9762;DHT22;4920;49.594;11.022;2023-04-03T03:59:13;3.30;99.90
9762;DHT22;4920;49.594;11.022;2023-04-03T04:01:43;3.20;99.90
9762;DHT22;4920;49.594;11.022;2023-04-03T04:04:13;3.20;99.90
9762;DHT22;4920;49.594;11.022;2023-04-03T04:06:42;3.20;99.90
9762;DHT22;4920;49.594;11.022;2023-04-03T04:09:12;3.10;99.90
9762;DHT22;4920;49.594;11.022;2023-04-03T04:11:41;3.10;99.90
9762;DHT22;4920;49.594;11.022;2023-04-03T04:14:11;3.00;99.90
9762;DHT22;4920;49.594;11.022;2023-04-03T04:16:42;3.00;99.90
9762;DHT22;4920;49.594;11.022;2023-04-03T04:19:19;2.90;99.90
9762;DHT22;4920;49.594;11.022;2023-04-03T04:21:49;2.90;99.90
9762;DHT22;4920;49.594;11.022;2023-04-03T04:24:19;2.90;99.90
9762;DHT22;4920;49.594;11.022;2023-04-03T04:27:15;2.80;99.90
9762;DHT22;4920;49.594;11.022;2023-04-03T04:29:44;2.80;99.90
9762;DHT22;4920;49.594;11.022;2023-04-03T04:32:13;2.80;99.90
9762;DHT22;4920;49.594;11.022;2023-04-03T04:34:43;2.80;99.90
9762;DHT22;4920;49.594;11.022;2023-04-03T04:37:22;2.70;99.90
9762;DHT22;4920;49.594;11.022;2023-04-03T04:39:52;2.70;99.90
9762;DHT22;4920;49.594;11.022;2023-04-03T04:42:21;2.70;99.90
9762;DHT22;4920;49.594;11.022;2023-04-03T04:44:50;2.70;99.90
9762;DHT22;4920;49.594;11.022;2023-04-03T04:47:19;2.70;99.90
9762;DHT22;4920;49.594;11.022;2023-04-03T04:49:51;2.60;99.90
9762;DHT22;4920;49.594;11.022;2023-04-03T04:52:20;2.50;99.90
9762;DHT22;4920;49.594;11.022;2023-04-03T04:54:49;2.50;99.90
9762;DHT22;4920;49.594;11.022;2023-04-03T04:57:18;2.50;99.90
9762;DHT22;4920;49.594;11.022;2023-04-03T04:59:47;2.50;99.90
9762;DHT22;4920;49.594;11.022;2023-04-03T05:02:16;2.50;99.90
9762;DHT22;4920;49.594;11.022;2023-04-03T05:04:45;2.50;99.90
9762;DHT22;4920;49.594;11.022;2023-04-03T05:07:21;2.40;99.90
9762;DHT22;4920;49.594;11.022;2023-04-03T05:09:49;2.40;99.90
9762;DHT22;4920;49.594;11.022;2023-04-03T05:12:18;2.50;99.90
9762;DHT22;4920;49.594;11.022;2023-04-03T05:14:53;2.50;99.90
9762;DHT22;4920;49.594;11.022;2023-04-03T05:17:21;2.50;99.90
9762;DHT22;4920;49.594;11.022;2023-04-03T05:23:35;2.40;99.90
9762;DHT22;4920;49.594;11.022;2023-04-03T05:26:04;2.40;99.90
9762;DHT22;4920;49.594;11.022;2023-04-03T05:28:34;2.50;99.90
9762;DHT22;4920;49.594;11.022;2023-04-03T05:31:04;2.50;99.90
9762;DHT22;4920;49.594;11.022;2023-04-03T05:33:37;2.50;99.90
9762;DHT22;4920;49.594;11.022;2023-04-03T05:36:09;2.50;99.90
9762;DHT22;4920;49.594;11.022;2023-04-03T05:38:44;2.60;99.90
9762;DHT22;4920;49.594;11.022;2023-04-03T05:41:14;2.60;99.90
9762;DHT22;4920;49.594;11.022;2023-04-03T05:43:45;2.70;99.90
9762;DHT22;4920;49.594;11.022;2023-04-03T05:46:15;2.80;99.90
9762;DHT22;4920;49.594;11.022;2023-04-03T05:48:52;2.90;99.90
9762;DHT22;4920;49.594;11.022;2023-04-03T05:51:27;3.00;99.90
9762;DHT22;4920;49.594;11.022;2023-04-03T05:54:06;3.10;99.90
9762;DHT22;4920;49.594;11.022;2023-04-03T05:56:35;3.20;99.90
9762;DHT22;4920;49.594;11.022;2023-04-03T05:59:04;3.20;99.90
9762;DHT22;4920;49.594;11.022;2023-04-03T06:01:35;3.30;99.90
9762;DHT22;4920;49.594;11.022;2023-04-03T06:04:11;3.30;99.90
9762;DHT22;4920;49.594;11.022;2023-04-03T06:06:46;3.40;99.90
9762;DHT22;4920;49.594;11.022;2023-04-03T06:09:16;3.40;99.90
9762;DHT22;4920;49.594;11.022;2023-04-03T06:11:45;3.50;99.90
9762;DHT22;4920;49.594;11.022;2023-04-03T06:14:15;3.50;99.90
9762;DHT22;4920;49.594;11.022;2023-04-03T06:16:44;3.60;99.90
9762;DHT22;4920;49.594;11.022;2023-04-03T06:19:13;3.70;99.90
9762;DHT22;4920;49.594;11.022;2023-04-03T06:21:47;3.80;99.90
9762;DHT22;4920;49.594;11.022;2023-04-03T06:24:17;3.90;99.90
9762;DHT22;4920;49.594;11.022;2023-04-03T06:26:47;4.00;99.90
9762;DHT22;4920;49.594;11.022;2023-04-03T06:29:18;4.10;99.90
9762;DHT22;4920;49.594;11.022;2023-04-03T06:31:47;4.10;99.90
9762;DHT22;4920;49.594;11.022;2023-04-03T06:34:16;4.20;99.90
9762;DHT22;4920;49.594;11.022;2023-04-03T06:36:45;4.20;99.90
9762;DHT22;4920;49.594;11.022;2023-04-03T06:39:19;4.20;99.90
9762;DHT22;4920;49.594;11.022;2023-04-03T06:41:49;4.20;99.90
9762;DHT22;4920;49.594;11.022;2023-04-03T06:44:27;4.10;99.90
9762;DHT22;4920;49.594;11.022;2023-04-03T06:47:09;4.20;99.90
9762;DHT22;4920;49.594;11.022;2023-04-03T06:49:40;4.30;99.90
9762;DHT22;4920;49.594;11.022;2023-04-03T06:52:08;4.30;99.90
9762;DHT22;4920;49.594;11.022;2023-04-03T06:54:41;4.30;99.90
9762;DHT22;4920;49.594;11.022;2023-04-03T06:57:09;4.40;99.90
9762;DHT22;4920;49.594;11.022;2023-04-03T06:59:38;4.40;99.90
9762;DHT22;4920;49.594;11.022;2023-04-03T07:02:10;4.40;99.90
9762;DHT22;4920;49.594;11.022;2023-04-03T07:04:39;4.30;99.90
9762;DHT22;4920;49.594;11.022;2023-04-03T07:07:08;4.40;99.90
9762;DHT22;4920;49.594;11.022;2023-04-03T07:09:37;4.50;99.90
9762;DHT22;4920;49.594;11.022;2023-04-03T07:12:07;4.50;99.90
9762;DHT22;4920;49.594;11.022;2023-04-03T07:14:36;4.50;99.90
9762;DHT22;4920;49.594;11.022;2023-04-03T07:17:05;4.60;99.90
9762;DHT22;4920;49.594;11.022;2023-04-03T07:19:36;4.50;99.90
9762;DHT22;4920;49.594;11.022;2023-04-03T07:22:04;4.50;99.90
9762;DHT22;4920;49.594;11.022;2023-04-03T07:24:34;4.50;99.90
9762;DHT22;4920;49.594;11.022;2023-04-03T07:27:03;4.70;99.90
9762;DHT22;4920;49.594;11.022;2023-04-03T07:29:33;4.70;99.90
9762;DHT22;4920;49.594;11.022;2023-04-03T07:32:02;4.80;99.90
9762;DHT22;4920;49.594;11.022;2023-04-03T07:34:31;4.90;99.90
9762;DHT22;4920;49.594;11.022;2023-04-03T07:37:00;5.00;99.90
9762;DHT22;4920;49.594;11.022;2023-04-03T07:39:30;5.00;99.90
9762;DHT22;4920;49.594;11.022;2023-04-03T07:41:58;4.90;99.90
9762;DHT22;4920;49.594;11.022;2023-04-03T07:44:28;4.80;99.90
9762;DHT22;4920;49.594;11.022;2023-04-03T07:46:58;4.80;99.90
9762;DHT22;4920;49.594;11.022;2023-04-03T07:49:27;4.80;99.90
9762;DHT22;4920;49.594;11.022;2023-04-03T07:51:56;4.90;99.90
9762;DHT22;4920;49.594;11.022;2023-04-03T07:54:25;4.90;99.90
9762;DHT22;4920;49.594;11.022;2023-04-03T07:56:54;5.00;99.90
9762;DHT22;4920;49.594;11.022;2023-04-03T07:59:24;5.00;99.90
9762;DHT22;4920;49.594;11.022;2023-04-03T08:01:52;5.00;99.90
9762;DHT22;4920;49.594;11.022;2023-04-03T08:04:23;5.10;99.90
9762;DHT22;4920;49.594;11.022;2023-04-03T08:06:52;5.30;99.90
9762;DHT22;4920;49.594;11.022;2023-04-03T08:09:21;5.50;99.90
9762;DHT22;4920;49.594;11.022;2023-04-03T08:11:50;5.50;99.90
9762;DHT22;4920;49.594;11.022;2023-04-03T08:14:20;5.50;99.90
9762;DHT22;4920;49.594;11.022;2023-04-03T08:16:49;5.40;99.90
9762;DHT22;4920;49.594;11.022;2023-04-03T08:19:18;5.30;99.90
9762;DHT22;4920;49.594;11.022;2023-04-03T08:21:54;5.30;99.90
9762;DHT22;4920;49.594;11.022;2023-04-03T08:24:24;5.30;99.90
9762;DHT22;4920;49.594;11.022;2023-04-03T08:26:53;5.30;99.90
9762;DHT22;4920;49.594;11.022;2023-04-03T08:29:21;5.40;99.90
9762;DHT22;4920;49.594;11.022;2023-04-03T08:31:50;5.50;99.90
9762;DHT22;4920;49.594;11.022;2023-04-03T08:34:19;5.50;99.90
9762;DHT22;4920;49.594;11.022;2023-04-03T08:36:48;5.60;99.90
9762;DHT22;4920;49.594;11.022;2023-04-03T08:39:18;5.40;99.90
9762;DHT22;4920;49.594;11.022;2023-04-03T08:41:47;5.40;99.90
9762;DHT22;4920;49.594;11.022;2023-04-03T08:44:23;5.40;99.90
9762;DHT22;4920;49.594;11.022;2023-04-03T08:47:06;5.50;99.90
9762;DHT22;4920;49.594;11.022;2023-04-03T08:49:41;5.60;99.90
9762;DHT22;4920;49.594;11.022;2023-04-03T08:55:40;5.30;99.90
9762;DHT22;4920;49.594;11.022;2023-04-03T08:58:12;5.40;99.90
9762;DHT22;4920;49.594;11.022;2023-04-03T09:00:46;5.40;99.90
9762;DHT22;4920;49.594;11.022;2023-04-03T09:03:18;5.30;99.90
9762;DHT22;4920;49.594;11.022;2023-04-03T09:05:52;5.20;99.90
9762;DHT22;4920;49.594;11.022;2023-04-03T09:08:24;5.20;99.90
9762;DHT22;4920;49.594;11.022;2023-04-03T09:11:09;5.30;99.90
9762;DHT22;4920;49.594;11.022;2023-04-03T09:13:46;5.50;99.90
9762;DHT22;4920;49.594;11.022;2023-04-03T09:16:28;5.60;99.90
9762;DHT22;4920;49.594;11.022;2023-04-03T09:19:11;5.70;99.90
9762;DHT22;4920;49.594;11.022;2023-04-03T09:21:44;5.80;99.90
9762;DHT22;4920;49.594;11.022;2023-04-03T09:24:14;5.90;99.90
9762;DHT22;4920;49.594;11.022;2023-04-03T09:26:48;5.80;99.90
9762;DHT22;4920;49.594;11.022;2023-04-03T09:29:26;5.70;99.90
9762;DHT22;4920;49.594;11.022;2023-04-03T09:31:57;5.60;99.90
9762;DHT22;4920;49.594;11.022;2023-04-03T09:34:30;5.60;99.90
9762;DHT22;4920;49.594;11.022;2023-04-03T09:37:03;5.60;99.90
9762;DHT22;4920;49.594;11.022;2023-04-03T09:39:49;5.50;99.90
9762;DHT22;4920;49.594;11.022;2023-04-03T09:42:21;5.50;99.90
9762;DHT22;4920;49.594;11.022;2023-04-03T09:44:54;5.30;99.90
9762;DHT22;4920;49.594;11.022;2023-04-03T09:47:26;5.50;99.90
9762;DHT22;4920;49.594;11.022;2023-04-03T09:50:19;5.60;99.90
9762;DHT22;4920;49.594;11.022;2023-04-03T09:52:50;5.80;99.90
9762;DHT22;4920;49.594;11.022;2023-04-03T09:55:21;6.00;99.90
9762;DHT22;4920;49.594;11.022;2023-04-03T09:57:58;6.00;99.90
9762;DHT22;4920;49.594;11.022;2023-04-03T10:00:30;5.80;99.90
9762;DHT22;4920;49.594;11.022;2023-04-03T10:03:20;5.50;99.90
9762;DHT22;4920;49.594;11.022;2023-04-03T10:05:52;5.50;99.90
9762;DHT22;4920;49.594;11.022;2023-04-03T10:08:27;5.40;99.90
9762;DHT22;4920;49.594;11.022;2023-04-03T10:11:09;5.30;99.90
9762;DHT22;4920;49.594;11.022;2023-04-03T10:13:54;5.40;99.90
9762;DHT22;4920;49.594;11.022;2023-04-03T10:16:27;5.70;99.90
9762;DHT22;4920;49.594;11.022;2023-04-03T10:19:19;5.90;99.90
9762;DHT22;4920;49.594;11.022;2023-04-03T10:21:57;6.00;99.90
9762;DHT22;4920;49.594;11.022;2023-04-03T10:24:34;6.20;99.90
9762;DHT22;4920;49.594;11.022;2023-04-03T10:27:07;6.20;99.90
9762;DHT22;4920;49.594;11.022;2023-04-03T10:29:47;6.20;99.90
9762;DHT22;4920;49.594;11.022;2023-04-03T10:32:37;6.10;99.90
9762;DHT22;4920;49.594;11.022;2023-04-03T10:35:12;5.90;99.90
9762;DHT22;4920;49.594;11.022;2023-04-03T10:37:53;6.00;99.90
9762;DHT22;4920;49.594;11.022;2023-04-03T10:40:30;6.00;99.90
9762;DHT22;4920;49.594;11.022;2023-04-03T10:43:10;6.00;99.90
9762;DHT22;4920;49.594;11.022;2023-04-03T10:45:53;6.30;99.90
9762;DHT22;4920;49.594;11.022;2023-04-03T10:48:34;6.70;99.90
9762;DHT22;4920;49.594;11.022;2023-04-03T10:51:21;6.80;99.40
9762;DHT22;4920;49.594;11.022;2023-04-03T10:53:56;6.60;98.50
9762;DHT22;4920;49.594;11.022;2023-04-03T10:56:31;6.60;97.10
9762;DHT22;4920;49.594;11.022;2023-04-03T10:59:08;6.40;96.80
9762;DHT22;4920;49.594;11.022;2023-04-03T11:01:45;6.50;97.10
9762;DHT22;4920;49.594;11.022;2023-04-03T11:04:15;6.80;97.50
9762;DHT22;4920;49.594;11.022;2023-04-03T11:06:47;7.10;96.10
9762;DHT22;4920;49.594;11.022;2023-04-03T11:09:21;7.40;95.70
9762;DHT22;4920;49.594;11.022;2023-04-03T11:11:56;7.70;95.70
9762;DHT22;4920;49.594;11.022;2023-04-03T11:14:31;8.10;95.20
9762;DHT22;4920;49.594;11.022;2023-04-03T11:17:08;8.50;94.10
9762;DHT22;4920;49.594;11.022;2023-04-03T11:19:42;8.70;92.50
9762;DHT22;4920;49.594;11.022;2023-04-03T11:22:20;8.60;92.10
9762;DHT22;4920;49.594;11.022;2023-04-03T11:24:57;8.00;91.50
9762;DHT22;4920;49.594;11.022;2023-04-03T11:27:30;7.50;91.90
9762;DHT22;4920;49.594;11.022;2023-04-03T11:30:02;7.10;91.40
9762;DHT22;4920;49.594;11.022;2023-04-03T11:35:38;6.90;91.70
9762;DHT22;4920;49.594;11.022;2023-04-03T11:38:16;6.90;92.20
9762;DHT22;4920;49.594;11.022;2023-04-03T11:40:47;7.10;92.00
9762;DHT22;4920;49.594;11.022;2023-04-03T11:43:22;7.50;91.10
9762;DHT22;4920;49.594;11.022;2023-04-03T11:45:55;7.80;90.50
9762;DHT22;4920;49.594;11.022;2023-04-03T11:48:47;7.90;92.10
9762;DHT22;4920;49.594;11.022;2023-04-03T11:51:42;7.90;92.10
9762;DHT22;4920;49.594;11.022;2023-04-03T11:54:36;7.60;91.10
9762;DHT22;4920;49.594;11.022;2023-04-03T11:57:43;7.70;91.80
9762;DHT22;4920;49.594;11.022;2023-04-03T12:00:50;8.00;91.20
9762;DHT22;4920;49.594;11.022;2023-04-03T12:09:29;7.60;90.70
9762;DHT22;4920;49.594;11.022;2023-04-03T12:12:01;7.40;90.70
9762;DHT22;4920;49.594;11.022;2023-04-03T12:14:48;7.40;90.30
9762;DHT22;4920;49.594;11.022;2023-04-03T12:17:22;7.40;90.80
9762;DHT22;4920;49.594;11.022;2023-04-03T12:19:53;7.60;90.80
9762;DHT22;4920;49.594;11.022;2023-04-03T12:22:22;7.80;90.50
9762;DHT22;4920;49.594;11.022;2023-04-03T12:24:52;8.10;90.20
9762;DHT22;4920;49.594;11.022;2023-04-03T12:27:27;8.30;89.00
9762;DHT22;4920;49.594;11.022;2023-04-03T12:30:04;8.00;86.90
9762;DHT22;4920;49.594;11.022;2023-04-03T12:33:02;7.60;88.20
9762;DHT22;4920;49.594;11.022;2023-04-03T12:35:44;7.20;90.20
9762;DHT22;4920;49.594;11.022;2023-04-03T12:38:41;7.30;90.20
9762;DHT22;4920;49.594;11.022;2023-04-03T12:41:18;7.50;90.20
9762;DHT22;4920;49.594;11.022;2023-04-03T12:44:06;7.70;89.50
9762;DHT22;4920;49.594;11.022;2023-04-03T12:46:42;7.70;88.00
9762;DHT22;4920;49.594;11.022;2023-04-03T12:49:31;7.40;89.10
9762;DHT22;4920;49.594;11.022;2023-04-03T12:52:05;7.40;87.30
9762;DHT22;4920;49.594;11.022;2023-04-03T12:54:36;7.30;87.10
9762;DHT22;4920;49.594;11.022;2023-04-03T12:57:13;7.30;88.90
9762;DHT22;4920;49.594;11.022;2023-04-03T12:59:45;7.50;91.40
9762;DHT22;4920;49.594;11.022;2023-04-03T13:02:23;7.80;89.50
9762;DHT22;4920;49.594;11.022;2023-04-03T13:04:54;8.00;90.40
9762;DHT22;4920;49.594;11.022;2023-04-03T13:07:28;8.20;90.50
9762;DHT22;4920;49.594;11.022;2023-04-03T13:10:01;8.00;85.80
9762;DHT22;4920;49.594;11.022;2023-04-03T13:12:33;7.60;87.70
9762;DHT22;4920;49.594;11.022;2023-04-03T13:15:11;7.40;90.20
9762;DHT22;4920;49.594;11.022;2023-04-03T13:17:42;7.40;90.80
9762;DHT22;4920;49.594;11.022;2023-04-03T13:20:21;7.60;90.60
9762;DHT22;4920;49.594;11.022;2023-04-03T13:22:54;7.80;90.40
9762;DHT22;4920;49.594;11.022;2023-04-03T13:25:28;8.10;89.70
9762;DHT22;4920;49.594;11.022;2023-04-03T13:28:01;8.20;89.70
9762;DHT22;4920;49.594;11.022;2023-04-03T13:30:41;8.40;86.10
9762;DHT22;4920;49.594;11.022;2023-04-03T13:33:25;8.10;83.80
9762;DHT22;4920;49.594;11.022;2023-04-03T13:35:58;8.00;86.80
9762;DHT22;4920;49.594;11.022;2023-04-03T13:38:30;7.90;85.30
9762;DHT22;4920;49.594;11.022;2023-04-03T13:41:03;7.70;87.20
9762;DHT22;4920;49.594;11.022;2023-04-03T13:43:35;7.70;86.10
9762;DHT22;4920;49.594;11.022;2023-04-03T13:46:23;7.90;89.80
9762;DHT22;4920;49.594;11.022;2023-04-03T13:48:54;8.10;88.20
9762;DHT22;4920;49.594;11.022;2023-04-03T13:51:25;8.30;86.40
9762;DHT22;4920;49.594;11.022;2023-04-03T13:53:56;8.20;84.40
9762;DHT22;4920;49.594;11.022;2023-04-03T13:56:31;8.00;84.40
9762;DHT22;4920;49.594;11.022;2023-04-03T13:59:05;7.90;84.50
9762;DHT22;4920;49.594;11.022;2023-04-03T14:01:41;7.80;86.20
9762;DHT22;4920;49.594;11.022;2023-04-03T14:04:14;7.80;85.90
9762;DHT22;4920;49.594;11.022;2023-04-03T14:06:44;7.60;83.70
9762;DHT22;4920;49.594;11.022;2023-04-03T14:09:14;7.50;86.60
9762;DHT22;4920;49.594;11.022;2023-04-03T14:11:44;7.30;83.90
9762;DHT22;4920;49.594;11.022;2023-04-03T14:14:18;7.30;86.40
9762;DHT22;4920;49.594;11.022;2023-04-03T14:16:51;7.50;89.20
9762;DHT22;4920;49.594;11.022;2023-04-03T14:19:23;7.80;87.80
9762;DHT22;4920;49.594;11.022;2023-04-03T14:21:52;8.00;84.20
9762;DHT22;4920;49.594;11.022;2023-04-03T14:24:23;8.20;84.20
9762;DHT22;4920;49.594;11.022;2023-04-03T14:26:53;8.10;84.10
9762;DHT22;4920;49.594;11.022;2023-04-03T14:29:24;7.90;80.70
9762;DHT22;4920;49.594;11.022;2023-04-03T14:31:53;7.80;83.00
9762;DHT22;4920;49.594;11.022;2023-04-03T14:34:40;7.90;82.40
9762;DHT22;4920;49.594;11.022;2023-04-03T14:37:13;8.10;83.10
9762;DHT22;4920;49.594;11.022;2023-04-03T14:39:44;8.20;80.30
9762;DHT22;4920;49.594;11.022;2023-04-03T14:42:16;8.00;79.10
9762;DHT22;4920;49.594;11.022;2023-04-03T14:44:46;7.80;80.40
9762;DHT22;4920;49.594;11.022;2023-04-03T14:47:17;7.70;81.10
9762;DHT22;4920;49.594;11.022;2023-04-03T14:49:58;7.60;80.20
9762;DHT22;4920;49.594;11.022;2023-04-03T14:52:30;7.40;80.10
9762;DHT22;4920;49.594;11.022;2023-04-03T14:55:00;7.30;82.10
9762;DHT22;4920;49.594;11.022;2023-04-03T14:57:30;7.40;82.40
9762;DHT22;4920;49.594;11.022;2023-04-03T15:00:00;7.50;81.90
9762;DHT22;4920;49.594;11.022;2023-04-03T15:02:32;7.80;83.80
9762;DHT22;4920;49.594;11.022;2023-04-03T15:05:03;8.00;83.20
9762;DHT22;4920;49.594;11.022;2023-04-03T15:07:34;8.10;84.70
9762;DHT22;4920;49.594;11.022;2023-04-03T15:10:15;8.10;81.40
9762;DHT22;4920;49.594;11.022;2023-04-03T15:12:44;8.00;80.50
9762;DHT22;4920;49.594;11.022;2023-04-03T15:15:16;8.00;82.00
9762;DHT22;4920;49.594;11.022;2023-04-03T15:17:45;7.90;81.40
9762;DHT22;4920;49.594;11.022;2023-04-03T15:20:17;7.70;81.30
9762;DHT22;4920;49.594;11.022;2023-04-03T15:22:46;7.50;82.10
9762;DHT22;4920;49.594;11.022;2023-04-03T15:25:15;7.50;81.30
9762;DHT22;4920;49.594;11.022;2023-04-03T15:27:45;7.40;83.80
9762;DHT22;4920;49.594;11.022;2023-04-03T15:30:18;7.40;84.00
9762;DHT22;4920;49.594;11.022;2023-04-03T15:32:47;7.40;83.20
9762;DHT22;4920;49.594;11.022;2023-04-03T15:35:16;7.40;80.80
9762;DHT22;4920;49.594;11.022;2023-04-03T15:37:45;7.40;81.70
9762;DHT22;4920;49.594;11.022;2023-04-03T15:40:15;7.40;81.30
9762;DHT22;4920;49.594;11.022;2023-04-03T15:42:45;7.30;80.10
9762;DHT22;4920;49.594;11.022;2023-04-03T15:45:15;7.10;81.10
9762;DHT22;4920;49.594;11.022;2023-04-03T15:47:44;7.10;83.70
9762;DHT22;4920;49.594;11.022;2023-04-03T15:50:13;7.10;82.40
9762;DHT22;4920;49.594;11.022;2023-04-03T15:52:42;7.10;83.70
9762;DHT22;4920;49.594;11.022;2023-04-03T15:55:11;7.10;82.80
9762;DHT22;4920;49.594;11.022;2023-04-03T15:57:39;7.10;79.70
9762;DHT22;4920;49.594;11.022;2023-04-03T16:00:10;7.00;82.90
9762;DHT22;4920;49.594;11.022;2023-04-03T16:02:43;7.00;83.30
9762;DHT22;4920;49.594;11.022;2023-04-03T16:05:13;7.00;82.90
9762;DHT22;4920;49.594;11.022;2023-04-03T16:07:44;7.00;80.60
9762;DHT22;4920;49.594;11.022;2023-04-03T16:10:15;6.90;80.90
9762;DHT22;4920;49.594;11.022;2023-04-03T16:12:45;6.80;81.40
9762;DHT22;4920;49.594;11.022;2023-04-03T16:15:13;6.80;80.80
9762;DHT22;4920;49.594;11.022;2023-04-03T16:17:44;6.70;82.50
9762;DHT22;4920;49.594;11.022;2023-04-03T16:20:13;6.60;81.60
9762;DHT22;4920;49.594;11.022;2023-04-03T16:22:43;6.50;80.10
9762;DHT22;4920;49.594;11.022;2023-04-03T16:25:12;6.50;81.60
9762;DHT22;4920;49.594;11.022;2023-04-03T16:27:40;6.50;81.70
9762;DHT22;4920;49.594;11.022;2023-04-03T16:30:11;6.50;82.30
9762;DHT22;4920;49.594;11.022;2023-04-03T16:32:41;6.40;83.00
9762;DHT22;4920;49.594;11.022;2023-04-03T16:35:15;6.40;83.90
9762;DHT22;4920;49.594;11.022;2023-04-03T16:37:44;6.30;83.50
9762;DHT22;4920;49.594;11.022;2023-04-03T16:40:13;6.30;84.40
9762;DHT22;4920;49.594;11.022;2023-04-03T16:42:42;6.30;84.60
9762;DHT22;4920;49.594;11.022;2023-04-03T16:45:10;6.20;85.70
9762;DHT22;4920;49.594;11.022;2023-04-03T16:47:39;6.20;82.80
9762;DHT22;4920;49.594;11.022;2023-04-03T16:50:09;6.10;83.30
9762;DHT22;4920;49.594;11.022;2023-04-03T16:52:39;6.00;85.10